VIR86 KLAS-EGCC
Flight info
| Callsign | VIR86 |
|---|---|
| Flight time | N/A |
| Altitude | 35000 |
| Route | RATPK3 FRNCK DCT MLF DCT MTU DCT DDY J107 DPR DCT GFK DCT GABOV DCT DUSMA/N0502F370 DCT MCKEE/M085F370 DCT URTAK DCT 59N050W 59N040W 59N030W 58N020W DCT SUNOT/N0489F370 DCT KESIX DCT MIMKU DCT MAKUX |
| Aircraft | A35K/H-SDE2E3GHIJ3J4J5LM1ORWXY/LB1D1 |
Departure
| Time | 2026-05-05 23:21 |
|---|---|
| Airport | Harry Reid International Airport (KLAS) |
Arrival
| Time | N/A |
|---|---|
| Airport | Manchester Airport (EGCC) |
| Time | Latitude | Longitude | Altitude | Speed | Heading |
|---|---|---|---|---|---|
| 2026-05-05 22:41 | 36.08533 | -115.13443 | 2196 ft | 0 kts | 0° |
| 2026-05-05 23:11 | 36.08509 | -115.13443 | 2195 ft | 4 kts | 0° |
| 2026-05-05 23:11 | 36.08486 | -115.13443 | 2193 ft | 2 kts | 0° |
| 2026-05-05 23:12 | 36.08461 | -115.13448 | 2194 ft | 4 kts | 31° |
| 2026-05-05 23:12 | 36.08445 | -115.13470 | 2194 ft | 4 kts | 78° |
| 2026-05-05 23:12 | 36.08443 | -115.13501 | 2193 ft | 4 kts | 90° |
| 2026-05-05 23:12 | 36.08443 | -115.13528 | 2193 ft | 1 kts | 90° |
| 2026-05-05 23:13 | 36.08443 | -115.13529 | 2193 ft | 0 kts | 90° |
| 2026-05-05 23:14 | 36.08443 | -115.13523 | 2193 ft | 3 kts | 89° |
| 2026-05-05 23:14 | 36.08434 | -115.13481 | 2192 ft | 8 kts | 115° |
| 2026-05-05 23:15 | 36.08390 | -115.13414 | 2195 ft | 12 kts | 133° |
| 2026-05-05 23:15 | 36.08332 | -115.13340 | 2196 ft | 12 kts | 135° |
| 2026-05-05 23:15 | 36.08260 | -115.13293 | 2196 ft | 12 kts | 172° |
| 2026-05-05 23:15 | 36.08175 | -115.13291 | 2195 ft | 13 kts | 180° |
| 2026-05-05 23:16 | 36.08085 | -115.13291 | 2198 ft | 13 kts | 180° |
| 2026-05-05 23:16 | 36.07990 | -115.13291 | 2195 ft | 14 kts | 180° |
| 2026-05-05 23:16 | 36.07917 | -115.13291 | 2196 ft | 6 kts | 180° |
| 2026-05-05 23:16 | 36.07901 | -115.13291 | 2197 ft | 0 kts | 180° |
| 2026-05-05 23:17 | 36.07893 | -115.13291 | 2195 ft | 4 kts | 180° |
| 2026-05-05 23:17 | 36.07844 | -115.13274 | 2196 ft | 9 kts | 142° |
| 2026-05-05 23:17 | 36.07829 | -115.13201 | 2198 ft | 9 kts | 91° |
| 2026-05-05 23:17 | 36.07829 | -115.13116 | 2198 ft | 10 kts | 90° |
| 2026-05-05 23:18 | 36.07828 | -115.13023 | 2197 ft | 11 kts | 90° |
| 2026-05-05 23:18 | 36.07828 | -115.12923 | 2198 ft | 12 kts | 90° |
| 2026-05-05 23:18 | 36.07828 | -115.12810 | 2197 ft | 16 kts | 90° |
| 2026-05-05 23:18 | 36.07828 | -115.12646 | 2197 ft | 21 kts | 90° |
| 2026-05-05 23:19 | 36.07829 | -115.12469 | 2197 ft | 21 kts | 90° |
| 2026-05-05 23:19 | 36.07826 | -115.12294 | 2197 ft | 19 kts | 102° |
| 2026-05-05 23:19 | 36.07761 | -115.12165 | 2198 ft | 16 kts | 128° |
| 2026-05-05 23:19 | 36.07672 | -115.12127 | 2199 ft | 11 kts | 189° |
| 2026-05-05 23:20 | 36.07643 | -115.12195 | 2199 ft | 9 kts | 268° |
| 2026-05-05 23:20 | 36.07643 | -115.12204 | 2197 ft | 0 kts | 270° |
| 2026-05-05 23:20 | 36.07643 | -115.12227 | 2197 ft | 16 kts | 270° |
| 2026-05-05 23:20 | 36.07644 | -115.12671 | 2195 ft | 85 kts | 270° |
| 2026-05-05 23:21 | 36.07641 | -115.13667 | 2200 ft | 145 kts | 270° |
| 2026-05-05 23:21 | 36.07639 | -115.15132 | 2265 ft | 189 kts | 270° |
| 2026-05-05 23:21 | 36.07635 | -115.16720 | 3047 ft | 184 kts | 270° |
| 2026-05-05 23:21 | 36.07633 | -115.18322 | 3641 ft | 191 kts | 269° |
| 2026-05-05 23:22 | 36.07635 | -115.20035 | 3913 ft | 208 kts | 269° |
| 2026-05-05 23:22 | 36.07635 | -115.21894 | 4135 ft | 228 kts | 269° |
| 2026-05-05 23:22 | 36.07636 | -115.23897 | 4522 ft | 240 kts | 270° |
| 2026-05-05 23:22 | 36.07822 | -115.26030 | 4789 ft | 258 kts | 286° |
| 2026-05-05 23:23 | 36.08771 | -115.27926 | 5369 ft | 266 kts | 316° |
| 2026-05-05 23:23 | 36.10410 | -115.29015 | 5993 ft | 273 kts | 343° |
| 2026-05-05 23:23 | 36.12279 | -115.29533 | 6618 ft | 279 kts | 352° |
| 2026-05-05 23:23 | 36.14221 | -115.29411 | 7304 ft | 281 kts | 15° |
| 2026-05-05 23:24 | 36.15938 | -115.28289 | 8110 ft | 281 kts | 41° |
| 2026-05-05 23:24 | 36.17137 | -115.26392 | 8924 ft | 282 kts | 60° |
| 2026-05-05 23:24 | 36.17947 | -115.24169 | 9683 ft | 285 kts | 67° |
| 2026-05-05 23:24 | 36.18657 | -115.21862 | 10310 ft | 292 kts | 68° |
| 2026-05-05 23:25 | 36.19357 | -115.19455 | 10604 ft | 311 kts | 72° |
| 2026-05-05 23:25 | 36.19673 | -115.16719 | 10881 ft | 331 kts | 87° |
| 2026-05-05 23:25 | 36.19687 | -115.13791 | 11179 ft | 349 kts | 89° |
| 2026-05-05 23:25 | 36.19664 | -115.10702 | 11427 ft | 366 kts | 89° |
| 2026-05-05 23:26 | 36.19648 | -115.07482 | 11726 ft | 381 kts | 89° |
| 2026-05-05 23:26 | 36.19639 | -115.04163 | 12245 ft | 388 kts | 89° |
| 2026-05-05 23:26 | 36.19633 | -115.00800 | 12911 ft | 392 kts | 89° |
| 2026-05-05 23:26 | 36.19628 | -114.97405 | 13559 ft | 396 kts | 89° |